<?xml version="1.0" encoding="UTF-8" standalone="no" ?>
<gpx xmlns="http://www.topografix.com/GPX/1/1" xmlns:xsi="http://www.w3.org/2001/XMLSchema-instance" xsi:schemaLocation="http://www.topografix.com/GPX/1/1 http://www.topografix.com/GPX/1/1/gpx.xsd" version="1.1" creator="VisuGPX - https://www.visugpx.com">
  <metadata>
    <name>Velo</name>
    <desc><![CDATA[idor:10246719_102515280_10794639_12973163_1418743_13428926_12998252_13558460_14716825_14357364_14251590]]></desc>
  </metadata>
  <trk>
    <name><![CDATA[ChapelleE_GesvresTreillieres_23km-13558460]]></name>
    <extensions>
      <line xmlns="http://www.topografix.com/GPX/gpx_style/0/2">
        <color>FFFF00</color>
        <width>4</width>
      </line>
    </extensions>
    <trkseg>
      <trkpt lat="47.26873" lon="-1.54605">
        <ele>31</ele>
        <time>2023-11-15T07:52:42Z</time>
      </trkpt>
      <trkpt lat="47.26859" lon="-1.54643">
        <ele>30</ele>
        <time>2023-11-15T07:53:21Z</time>
      </trkpt>
      <trkpt lat="47.26931" lon="-1.54923">
        <ele>26</ele>
        <time>2023-11-15T07:57:52Z</time>
      </trkpt>
      <trkpt lat="47.26904" lon="-1.54997">
        <ele>24</ele>
        <time>2023-11-15T07:59:08Z</time>
      </trkpt>
      <trkpt lat="47.26969" lon="-1.55221">
        <ele>29</ele>
        <time>2023-11-15T08:02:49Z</time>
      </trkpt>
      <trkpt lat="47.27056" lon="-1.55538">
        <ele>24</ele>
        <time>2023-11-15T08:07:59Z</time>
      </trkpt>
      <trkpt lat="47.27071" lon="-1.5564">
        <ele>19</ele>
        <time>2023-11-15T08:09:33Z</time>
      </trkpt>
      <trkpt lat="47.27052" lon="-1.5573">
        <ele>11</ele>
        <time>2023-11-15T08:10:58Z</time>
      </trkpt>
      <trkpt lat="47.2721" lon="-1.56016">
        <ele>10</ele>
        <time>2023-11-15T08:16:32Z</time>
      </trkpt>
      <trkpt lat="47.27261" lon="-1.56034">
        <ele>10</ele>
        <time>2023-11-15T08:17:42Z</time>
      </trkpt>
      <trkpt lat="47.27291" lon="-1.56085">
        <ele>8</ele>
        <time>2023-11-15T08:18:43Z</time>
      </trkpt>
      <trkpt lat="47.27364" lon="-1.56119">
        <ele>10</ele>
        <time>2023-11-15T08:20:26Z</time>
      </trkpt>
      <trkpt lat="47.27509" lon="-1.56094">
        <ele>19</ele>
        <time>2023-11-15T08:23:40Z</time>
      </trkpt>
      <trkpt lat="47.27604" lon="-1.56007">
        <ele>27</ele>
        <time>2023-11-15T08:26:10Z</time>
      </trkpt>
      <trkpt lat="47.27658" lon="-1.56112">
        <ele>23</ele>
        <time>2023-11-15T08:28:09Z</time>
      </trkpt>
      <trkpt lat="47.27751" lon="-1.56172">
        <ele>27</ele>
        <time>2023-11-15T08:30:24Z</time>
      </trkpt>
      <trkpt lat="47.2786" lon="-1.56413">
        <ele>19</ele>
        <time>2023-11-15T08:34:47Z</time>
      </trkpt>
      <trkpt lat="47.27853" lon="-1.56514">
        <ele>13</ele>
        <time>2023-11-15T08:36:19Z</time>
      </trkpt>
      <trkpt lat="47.27879" lon="-1.56568">
        <ele>13</ele>
        <time>2023-11-15T08:37:19Z</time>
      </trkpt>
      <trkpt lat="47.27899" lon="-1.56569">
        <ele>15</ele>
        <time>2023-11-15T08:37:45Z</time>
      </trkpt>
      <trkpt lat="47.27928" lon="-1.56571">
        <ele>17</ele>
        <time>2023-11-15T08:38:24Z</time>
      </trkpt>
      <trkpt lat="47.28006" lon="-1.56608">
        <ele>20</ele>
        <time>2023-11-15T08:40:13Z</time>
      </trkpt>
      <trkpt lat="47.28124" lon="-1.56601">
        <ele>19</ele>
        <time>2023-11-15T08:42:51Z</time>
      </trkpt>
      <trkpt lat="47.28218" lon="-1.56512">
        <ele>21</ele>
        <time>2023-11-15T08:45:20Z</time>
      </trkpt>
      <trkpt lat="47.28319" lon="-1.56511">
        <ele>15</ele>
        <time>2023-11-15T08:47:35Z</time>
      </trkpt>
      <trkpt lat="47.28485" lon="-1.56472">
        <ele>22</ele>
        <time>2023-11-15T08:51:19Z</time>
      </trkpt>
      <trkpt lat="47.2852" lon="-1.56509">
        <ele>20</ele>
        <time>2023-11-15T08:52:17Z</time>
      </trkpt>
      <trkpt lat="47.28552" lon="-1.5662">
        <ele>14</ele>
        <time>2023-11-15T08:54:06Z</time>
      </trkpt>
      <trkpt lat="47.28674" lon="-1.56679">
        <ele>14</ele>
        <time>2023-11-15T08:56:57Z</time>
      </trkpt>
      <trkpt lat="47.2874" lon="-1.56733">
        <ele>12</ele>
        <time>2023-11-15T08:58:38Z</time>
      </trkpt>
      <trkpt lat="47.28827" lon="-1.56753">
        <ele>15</ele>
        <time>2023-11-15T09:00:35Z</time>
      </trkpt>
      <trkpt lat="47.28888" lon="-1.56489">
        <ele>30</ele>
        <time>2023-11-15T09:04:48Z</time>
      </trkpt>
      <trkpt lat="47.28963" lon="-1.56447">
        <ele>32</ele>
        <time>2023-11-15T09:06:35Z</time>
      </trkpt>
      <trkpt lat="47.29076" lon="-1.56453">
        <ele>31</ele>
        <time>2023-11-15T09:09:06Z</time>
      </trkpt>
      <trkpt lat="47.29144" lon="-1.56627">
        <ele>18</ele>
        <time>2023-11-15T09:12:08Z</time>
      </trkpt>
      <trkpt lat="47.29244" lon="-1.56616">
        <ele>20</ele>
        <time>2023-11-15T09:14:21Z</time>
      </trkpt>
      <trkpt lat="47.29277" lon="-1.56616">
        <ele>21</ele>
        <time>2023-11-15T09:15:05Z</time>
      </trkpt>
      <trkpt lat="47.29402" lon="-1.5674">
        <ele>24</ele>
        <time>2023-11-15T09:18:26Z</time>
      </trkpt>
      <trkpt lat="47.29557" lon="-1.56779">
        <ele>31</ele>
        <time>2023-11-15T09:21:56Z</time>
      </trkpt>
      <trkpt lat="47.29613" lon="-1.56752">
        <ele>32</ele>
        <time>2023-11-15T09:23:15Z</time>
      </trkpt>
      <trkpt lat="47.29615" lon="-1.56721">
        <ele>33</ele>
        <time>2023-11-15T09:23:43Z</time>
      </trkpt>
      <trkpt lat="47.29647" lon="-1.5669">
        <ele>33</ele>
        <time>2023-11-15T09:24:34Z</time>
      </trkpt>
      <trkpt lat="47.29725" lon="-1.56655">
        <ele>31</ele>
        <time>2023-11-15T09:26:23Z</time>
      </trkpt>
      <trkpt lat="47.29778" lon="-1.56656">
        <ele>29</ele>
        <time>2023-11-15T09:27:34Z</time>
      </trkpt>
      <trkpt lat="47.29882" lon="-1.56619">
        <ele>26</ele>
        <time>2023-11-15T09:29:56Z</time>
      </trkpt>
      <trkpt lat="47.30034" lon="-1.56608">
        <ele>18</ele>
        <time>2023-11-15T09:33:20Z</time>
      </trkpt>
      <trkpt lat="47.30152" lon="-1.56615">
        <ele>19</ele>
        <time>2023-11-15T09:35:57Z</time>
      </trkpt>
      <trkpt lat="47.30288" lon="-1.56545">
        <ele>28</ele>
        <time>2023-11-15T09:39:09Z</time>
      </trkpt>
      <trkpt lat="47.30359" lon="-1.56513">
        <ele>30</ele>
        <time>2023-11-15T09:40:48Z</time>
      </trkpt>
      <trkpt lat="47.30423" lon="-1.56468">
        <ele>32</ele>
        <time>2023-11-15T09:42:23Z</time>
      </trkpt>
      <trkpt lat="47.30449" lon="-1.56356">
        <ele>33</ele>
        <time>2023-11-15T09:44:10Z</time>
      </trkpt>
      <trkpt lat="47.30544" lon="-1.56492">
        <ele>37</ele>
        <time>2023-11-15T09:47:07Z</time>
      </trkpt>
      <trkpt lat="47.30634" lon="-1.5658">
        <ele>38</ele>
        <time>2023-11-15T09:49:31Z</time>
      </trkpt>
      <trkpt lat="47.30746" lon="-1.56484">
        <ele>38</ele>
        <time>2023-11-15T09:52:24Z</time>
      </trkpt>
      <trkpt lat="47.30768" lon="-1.56492">
        <ele>38</ele>
        <time>2023-11-15T09:52:54Z</time>
      </trkpt>
      <trkpt lat="47.30797" lon="-1.56568">
        <ele>37</ele>
        <time>2023-11-15T09:54:13Z</time>
      </trkpt>
      <trkpt lat="47.30842" lon="-1.56616">
        <ele>37</ele>
        <time>2023-11-15T09:55:27Z</time>
      </trkpt>
      <trkpt lat="47.30874" lon="-1.56675">
        <ele>37</ele>
        <time>2023-11-15T09:56:35Z</time>
      </trkpt>
      <trkpt lat="47.31003" lon="-1.56989">
        <ele>42</ele>
        <time>2023-11-15T10:02:08Z</time>
      </trkpt>
      <trkpt lat="47.3164" lon="-1.57734">
        <ele>41</ele>
        <time>2023-11-15T10:20:13Z</time>
      </trkpt>
      <trkpt lat="47.322" lon="-1.58351">
        <ele>40</ele>
        <time>2023-11-15T10:35:45Z</time>
      </trkpt>
      <trkpt lat="47.32387" lon="-1.58708">
        <ele>42</ele>
        <time>2023-11-15T10:42:33Z</time>
      </trkpt>
      <trkpt lat="47.32581" lon="-1.59545">
        <ele>43</ele>
        <time>2023-11-15T10:55:54Z</time>
      </trkpt>
      <trkpt lat="47.33033" lon="-1.61718">
        <ele>59</ele>
        <time>2023-11-15T11:30:10Z</time>
      </trkpt>
      <trkpt lat="47.32803" lon="-1.61963">
        <ele>55</ele>
        <time>2023-11-15T11:36:28Z</time>
      </trkpt>
      <trkpt lat="47.32421" lon="-1.6201">
        <ele>48</ele>
        <time>2023-11-15T11:45:00Z</time>
      </trkpt>
      <trkpt lat="47.32267" lon="-1.61885">
        <ele>35</ele>
        <time>2023-11-15T11:48:54Z</time>
      </trkpt>
      <trkpt lat="47.32236" lon="-1.61737">
        <ele>36</ele>
        <time>2023-11-15T11:51:14Z</time>
      </trkpt>
      <trkpt lat="47.32051" lon="-1.61594">
        <ele>19</ele>
        <time>2023-11-15T11:55:53Z</time>
      </trkpt>
      <trkpt lat="47.31902" lon="-1.61686">
        <ele>23</ele>
        <time>2023-11-15T11:59:29Z</time>
      </trkpt>
      <trkpt lat="47.31764" lon="-1.61201">
        <ele>23</ele>
        <time>2023-11-15T12:07:24Z</time>
      </trkpt>
      <trkpt lat="47.31612" lon="-1.61114">
        <ele>29</ele>
        <time>2023-11-15T12:11:02Z</time>
      </trkpt>
      <trkpt lat="47.31567" lon="-1.60675">
        <ele>20</ele>
        <time>2023-11-15T12:17:44Z</time>
      </trkpt>
      <trkpt lat="47.31415" lon="-1.6044">
        <ele>31</ele>
        <time>2023-11-15T12:22:38Z</time>
      </trkpt>
      <trkpt lat="47.31228" lon="-1.60456">
        <ele>34</ele>
        <time>2023-11-15T12:26:47Z</time>
      </trkpt>
      <trkpt lat="47.31075" lon="-1.60131">
        <ele>41</ele>
        <time>2023-11-15T12:32:45Z</time>
      </trkpt>
      <trkpt lat="47.3102" lon="-1.59974">
        <ele>40</ele>
        <time>2023-11-15T12:35:25Z</time>
      </trkpt>
      <trkpt lat="47.3099" lon="-1.59703">
        <ele>30</ele>
        <time>2023-11-15T12:39:34Z</time>
      </trkpt>
      <trkpt lat="47.30986" lon="-1.59505">
        <ele>35</ele>
        <time>2023-11-15T12:42:33Z</time>
      </trkpt>
      <trkpt lat="47.30858" lon="-1.59392">
        <ele>46</ele>
        <time>2023-11-15T12:45:52Z</time>
      </trkpt>
      <trkpt lat="47.30477" lon="-1.59357">
        <ele>37</ele>
        <time>2023-11-15T12:54:22Z</time>
      </trkpt>
      <trkpt lat="47.3037" lon="-1.59413">
        <ele>40</ele>
        <time>2023-11-15T12:56:53Z</time>
      </trkpt>
      <trkpt lat="47.30162" lon="-1.59372">
        <ele>49</ele>
        <time>2023-11-15T13:01:33Z</time>
      </trkpt>
      <trkpt lat="47.30041" lon="-1.59055">
        <ele>53</ele>
        <time>2023-11-15T13:07:02Z</time>
      </trkpt>
      <trkpt lat="47.29428" lon="-1.59377">
        <ele>56</ele>
        <time>2023-11-15T13:21:31Z</time>
      </trkpt>
      <trkpt lat="47.29373" lon="-1.59198">
        <ele>48</ele>
        <time>2023-11-15T13:24:29Z</time>
      </trkpt>
      <trkpt lat="47.2947" lon="-1.58989">
        <ele>42</ele>
        <time>2023-11-15T13:28:18Z</time>
      </trkpt>
      <trkpt lat="47.29445" lon="-1.58438">
        <ele>35</ele>
        <time>2023-11-15T13:36:38Z</time>
      </trkpt>
      <trkpt lat="47.29432" lon="-1.58167">
        <ele>39</ele>
        <time>2023-11-15T13:40:43Z</time>
      </trkpt>
      <trkpt lat="47.29342" lon="-1.58055">
        <ele>36</ele>
        <time>2023-11-15T13:43:21Z</time>
      </trkpt>
      <trkpt lat="47.2922" lon="-1.57708">
        <ele>20</ele>
        <time>2023-11-15T13:49:14Z</time>
      </trkpt>
      <trkpt lat="47.29342" lon="-1.57162">
        <ele>16</ele>
        <time>2023-11-15T13:57:55Z</time>
      </trkpt>
      <trkpt lat="47.29297" lon="-1.56995">
        <ele>20</ele>
        <time>2023-11-15T14:00:37Z</time>
      </trkpt>
      <trkpt lat="47.29263" lon="-1.56775">
        <ele>16</ele>
        <time>2023-11-15T14:04:02Z</time>
      </trkpt>
      <trkpt lat="47.29095" lon="-1.56811">
        <ele>25</ele>
        <time>2023-11-15T14:07:48Z</time>
      </trkpt>
      <trkpt lat="47.28974" lon="-1.56594">
        <ele>16</ele>
        <time>2023-11-15T14:12:02Z</time>
      </trkpt>
      <trkpt lat="47.289" lon="-1.56781">
        <ele>17</ele>
        <time>2023-11-15T14:15:18Z</time>
      </trkpt>
      <trkpt lat="47.28832" lon="-1.5685">
        <ele>19</ele>
        <time>2023-11-15T14:17:08Z</time>
      </trkpt>
      <trkpt lat="47.28581" lon="-1.56765">
        <ele>14</ele>
        <time>2023-11-15T14:22:52Z</time>
      </trkpt>
      <trkpt lat="47.28515" lon="-1.567">
        <ele>16</ele>
        <time>2023-11-15T14:24:38Z</time>
      </trkpt>
      <trkpt lat="47.28503" lon="-1.56578">
        <ele>13</ele>
        <time>2023-11-15T14:26:30Z</time>
      </trkpt>
      <trkpt lat="47.2847" lon="-1.56568">
        <ele>13</ele>
        <time>2023-11-15T14:27:15Z</time>
      </trkpt>
      <trkpt lat="47.28359" lon="-1.56823">
        <ele>25</ele>
        <time>2023-11-15T14:31:49Z</time>
      </trkpt>
      <trkpt lat="47.28346" lon="-1.56735">
        <ele>21</ele>
        <time>2023-11-15T14:33:10Z</time>
      </trkpt>
      <trkpt lat="47.28378" lon="-1.56628">
        <ele>13</ele>
        <time>2023-11-15T14:34:56Z</time>
      </trkpt>
      <trkpt lat="47.28277" lon="-1.56578">
        <ele>11</ele>
        <time>2023-11-15T14:37:18Z</time>
      </trkpt>
      <trkpt lat="47.28165" lon="-1.56666">
        <ele>16</ele>
        <time>2023-11-15T14:40:08Z</time>
      </trkpt>
      <trkpt lat="47.27999" lon="-1.56679">
        <ele>18</ele>
        <time>2023-11-15T14:43:50Z</time>
      </trkpt>
      <trkpt lat="47.27945" lon="-1.56682">
        <ele>18</ele>
        <time>2023-11-15T14:45:02Z</time>
      </trkpt>
      <trkpt lat="47.27925" lon="-1.56559">
        <ele>18</ele>
        <time>2023-11-15T14:46:56Z</time>
      </trkpt>
      <trkpt lat="47.27886" lon="-1.56555">
        <ele>15</ele>
        <time>2023-11-15T14:47:48Z</time>
      </trkpt>
      <trkpt lat="47.27844" lon="-1.56507">
        <ele>13</ele>
        <time>2023-11-15T14:48:59Z</time>
      </trkpt>
      <trkpt lat="47.27856" lon="-1.56411">
        <ele>19</ele>
        <time>2023-11-15T14:50:28Z</time>
      </trkpt>
      <trkpt lat="47.27757" lon="-1.56197">
        <ele>26</ele>
        <time>2023-11-15T14:54:22Z</time>
      </trkpt>
      <trkpt lat="47.27651" lon="-1.5609">
        <ele>26</ele>
        <time>2023-11-15T14:57:14Z</time>
      </trkpt>
      <trkpt lat="47.27595" lon="-1.56001">
        <ele>27</ele>
        <time>2023-11-15T14:59:04Z</time>
      </trkpt>
      <trkpt lat="47.27516" lon="-1.56078">
        <ele>21</ele>
        <time>2023-11-15T15:01:10Z</time>
      </trkpt>
      <trkpt lat="47.27377" lon="-1.56118">
        <ele>11</ele>
        <time>2023-11-15T15:04:19Z</time>
      </trkpt>
      <trkpt lat="47.27303" lon="-1.56101">
        <ele>9</ele>
        <time>2023-11-15T15:05:59Z</time>
      </trkpt>
      <trkpt lat="47.27252" lon="-1.56032">
        <ele>9</ele>
        <time>2023-11-15T15:07:31Z</time>
      </trkpt>
      <trkpt lat="47.27201" lon="-1.56014">
        <ele>10</ele>
        <time>2023-11-15T15:08:41Z</time>
      </trkpt>
      <trkpt lat="47.27048" lon="-1.55719">
        <ele>12</ele>
        <time>2023-11-15T15:14:17Z</time>
      </trkpt>
      <trkpt lat="47.27068" lon="-1.55627">
        <ele>20</ele>
        <time>2023-11-15T15:15:45Z</time>
      </trkpt>
      <trkpt lat="47.27054" lon="-1.55555">
        <ele>24</ele>
        <time>2023-11-15T15:16:53Z</time>
      </trkpt>
      <trkpt lat="47.26977" lon="-1.55221">
        <ele>29</ele>
        <time>2023-11-15T15:22:12Z</time>
      </trkpt>
      <trkpt lat="47.26912" lon="-1.55">
        <ele>24</ele>
        <time>2023-11-15T15:25:50Z</time>
      </trkpt>
      <trkpt lat="47.26934" lon="-1.54911">
        <ele>26</ele>
        <time>2023-11-15T15:27:16Z</time>
      </trkpt>
      <trkpt lat="47.26857" lon="-1.54658">
        <ele>30</ele>
        <time>2023-11-15T15:31:27Z</time>
      </trkpt>
      <trkpt lat="47.26876" lon="-1.54592">
        <ele>31</ele>
        <time>2023-11-15T15:32:32Z</time>
      </trkpt>
    </trkseg>
  </trk>
</gpx>